createdAt,value
2022-12-25T00:04:00.927Z,0.35
2022-12-25T00:06:31.295Z,0.41
2022-12-25T00:08:58.343Z,0.44
2022-12-25T00:11:34.266Z,0.38
2022-12-25T00:14:08.898Z,0.46
2022-12-25T00:19:16.669Z,0.31
2022-12-25T00:25:44.787Z,0.05
2022-12-25T00:29:01.101Z,0.18
2022-12-25T00:31:30.675Z,0.03
2022-12-25T00:33:58.341Z,0.01
2022-12-25T00:36:28.493Z,-0.08
2022-12-25T00:38:57.811Z,0.03
2022-12-25T00:44:44.958Z,-0.05
2022-12-25T00:50:07.355Z,-0.04
2022-12-25T00:52:46.393Z,-0.19
2022-12-25T00:55:16.537Z,-0.13
2022-12-25T00:57:46.731Z,-0.16
2022-12-25T01:00:22.970Z,-0.15
2022-12-25T01:02:57.747Z,-0.08
2022-12-25T01:05:36.914Z,-0.30
2022-12-25T01:08:05.104Z,-0.14
2022-12-25T01:10:35.212Z,-0.29
2022-12-25T01:13:05.845Z,-0.33
2022-12-25T01:15:41.813Z,-0.49
2022-12-25T01:18:12.845Z,-0.54
2022-12-25T01:20:51.204Z,-0.52
2022-12-25T01:23:18.395Z,-0.42
2022-12-25T01:25:48.327Z,-0.44
2022-12-25T01:28:28.362Z,-0.55
2022-12-25T01:30:59.510Z,-0.62
2022-12-25T01:33:31.218Z,-0.56
2022-12-25T01:35:58.810Z,-0.75
2022-12-25T01:39:05.091Z,-0.63
2022-12-25T01:41:35.083Z,-0.87
2022-12-25T01:44:23.064Z,-0.98
2022-12-25T01:46:53.879Z,-0.95
2022-12-25T01:49:27.739Z,-0.93
2022-12-25T01:52:01.158Z,-0.88
2022-12-25T01:55:12.443Z,-0.90
2022-12-25T01:57:44.147Z,-0.90
2022-12-25T02:00:16.913Z,-1.09
2022-12-25T02:02:45.959Z,-1.18
2022-12-25T02:05:38.145Z,-0.97
2022-12-25T02:08:13.199Z,-0.98
2022-12-25T02:10:51.278Z,-1.17
2022-12-25T02:16:34.211Z,-1.03
2022-12-25T02:19:34.917Z,-1.10
2022-12-25T02:22:34.780Z,-0.91
2022-12-25T02:25:36.015Z,-0.92
2022-12-25T02:28:09.426Z,-0.95
2022-12-25T02:30:48.619Z,-1.09
2022-12-25T02:34:01.280Z,-1.03
2022-12-25T02:36:54.087Z,-1.21
2022-12-25T02:39:53.803Z,-1.38
2022-12-25T02:43:13.845Z,-1.10
2022-12-25T02:46:44.431Z,-1.29
2022-12-25T02:49:42.465Z,-1.43
2022-12-25T02:53:00.819Z,-1.32
2022-12-25T02:59:13.741Z,-1.60
2022-12-25T03:02:10.573Z,-1.71
2022-12-25T03:05:26.686Z,-1.68
2022-12-25T03:08:05.725Z,-1.69
2022-12-25T03:13:56.278Z,-1.83
2022-12-25T03:16:50.993Z,-1.81
2022-12-25T03:19:51.656Z,-1.74
2022-12-25T03:22:52.351Z,-1.61
2022-12-25T03:25:45.722Z,-1.56
2022-12-25T03:28:19.004Z,-1.71
2022-12-25T03:31:23.099Z,-1.64
2022-12-25T03:34:21.901Z,-1.74
2022-12-25T03:37:27.450Z,-1.82
2022-12-25T03:40:40.003Z,-1.84
2022-12-25T03:43:55.724Z,-1.87
2022-12-25T03:47:06.581Z,-2.11
2022-12-25T03:50:13.787Z,-1.95
2022-12-25T03:53:09.990Z,-2.12
2022-12-25T03:56:03.108Z,-2.14
2022-12-25T04:01:56.770Z,-2.26
2022-12-25T04:04:45.942Z,-2.14
2022-12-25T04:07:37.122Z,-2.11
2022-12-25T04:10:27.678Z,-2.17
2022-12-25T04:13:19.121Z,-2.11
2022-12-25T04:16:04.748Z,-2.19
2022-12-25T04:18:50.432Z,-2.07
2022-12-25T04:21:35.716Z,-2.08
2022-12-25T04:24:21.326Z,-2.06
2022-12-25T04:27:06.860Z,-2.02
2022-12-25T04:29:52.564Z,-2.02
2022-12-25T04:32:38.257Z,-1.94
2022-12-25T04:35:23.939Z,-1.91
2022-12-25T04:37:51.037Z,-1.88
2022-12-25T04:40:19.312Z,-1.87
2022-12-25T04:42:46.538Z,-1.88
2022-12-25T04:45:13.592Z,-1.90
2022-12-25T04:47:40.596Z,-1.82
2022-12-25T04:50:17.555Z,-1.76
2022-12-25T04:52:44.648Z,-1.72
2022-12-25T04:55:12.105Z,-1.71
2022-12-25T04:57:39.501Z,-1.66
2022-12-25T05:00:07.680Z,-1.65
2022-12-25T05:02:37.684Z,-1.66
2022-12-25T05:05:05.012Z,-1.69
2022-12-25T05:07:36.233Z,-1.78
2022-12-25T05:10:06.953Z,-1.87
2022-12-25T05:12:34.100Z,-1.90
2022-12-25T05:15:01.081Z,-1.94
2022-12-25T05:17:30.171Z,-2.01
2022-12-25T05:19:57.925Z,-2.02
2022-12-25T05:22:24.886Z,-2.05
2022-12-25T05:24:51.774Z,-2.07
2022-12-25T05:27:18.750Z,-2.06
2022-12-25T05:29:45.682Z,-2.09
2022-12-25T05:32:12.834Z,-2.12
2022-12-25T05:34:39.869Z,-2.11
2022-12-25T05:37:06.885Z,-2.17
2022-12-25T05:39:34.073Z,-2.39
2022-12-25T05:42:01.238Z,-2.28
2022-12-25T05:44:28.276Z,-2.24
2022-12-25T05:46:55.277Z,-2.26
2022-12-25T05:49:22.255Z,-2.31
2022-12-25T05:51:49.179Z,-2.35
2022-12-25T05:54:16.954Z,-2.36
2022-12-25T05:56:43.874Z,-2.34
2022-12-25T05:59:10.826Z,-2.35
2022-12-25T06:01:37.977Z,-2.37
2022-12-25T06:04:10.313Z,-2.34
2022-12-25T06:06:39.490Z,-2.33
2022-12-25T06:09:06.772Z,-2.36
2022-12-25T06:11:33.656Z,-2.39
2022-12-25T06:14:00.647Z,-2.36
2022-12-25T06:16:30.509Z,-2.34
2022-12-25T06:19:01.021Z,-2.41
2022-12-25T06:21:28.072Z,-2.42
2022-12-25T06:23:56.600Z,-2.44
2022-12-25T06:26:23.554Z,-2.46
2022-12-25T06:28:50.684Z,-2.43
2022-12-25T06:31:20.531Z,-2.39
2022-12-25T06:33:50.959Z,-2.39
2022-12-25T06:36:21.827Z,-2.33
2022-12-25T06:38:52.496Z,-2.28
2022-12-25T06:41:22.437Z,-2.25
2022-12-25T06:43:52.437Z,-2.19
2022-12-25T06:46:23.955Z,-2.13
2022-12-25T06:48:51.498Z,-2.15
2022-12-25T06:51:21.844Z,-2.14
2022-12-25T06:53:50.741Z,-2.19
2022-12-25T06:56:20.467Z,-2.23
2022-12-25T06:58:56.268Z,-2.31
2022-12-25T07:01:26.970Z,-2.32
2022-12-25T07:04:00.233Z,-2.30
2022-12-25T07:06:27.633Z,-2.24
2022-12-25T07:08:59.531Z,-2.25
2022-12-25T07:11:43.324Z,-2.08
2022-12-25T07:14:32.671Z,-2.20
2022-12-25T07:17:12.020Z,-2.18
2022-12-25T07:19:44.973Z,-2.08
2022-12-25T07:22:14.084Z,-2.13
2022-12-25T07:24:41.845Z,-2.08
2022-12-25T07:27:09.143Z,-2.19
2022-12-25T07:29:36.205Z,-2.22
2022-12-25T07:32:03.576Z,-2.34
2022-12-25T07:34:31.054Z,-2.29
2022-12-25T07:36:58.609Z,-2.34
2022-12-25T07:39:26.162Z,-2.36
2022-12-25T07:41:53.514Z,-2.30
2022-12-25T07:44:21.945Z,-2.25
2022-12-25T07:46:49.358Z,-2.30
2022-12-25T07:49:16.917Z,-2.20
2022-12-25T07:51:44.489Z,-2.11
2022-12-25T07:54:12.427Z,-2.08
2022-12-25T07:56:39.721Z,-2.05
2022-12-25T07:59:06.803Z,-2.07
2022-12-25T08:01:37.397Z,-2.02
2022-12-25T08:04:08.263Z,-2.03
2022-12-25T08:06:35.784Z,-2.03
2022-12-25T08:09:08.896Z,-2.04
2022-12-25T08:11:36.739Z,-2.05
2022-12-25T08:14:08.447Z,-2.09
2022-12-25T08:16:35.693Z,-2.12
2022-12-25T08:19:03.063Z,-2.15
2022-12-25T08:21:30.336Z,-2.20
2022-12-25T08:23:57.387Z,-2.28
2022-12-25T08:26:24.871Z,-2.27
2022-12-25T08:28:52.191Z,-2.30
2022-12-25T08:31:24.782Z,-2.25
2022-12-25T08:33:54.462Z,-2.22
2022-12-25T08:36:25.004Z,-2.26
2022-12-25T08:39:00.288Z,-2.16
2022-12-25T08:41:56.088Z,-2.11
2022-12-25T08:44:23.635Z,-2.15
2022-12-25T08:46:50.618Z,-2.19
2022-12-25T08:49:17.618Z,-2.21
2022-12-25T08:51:45.031Z,-2.17
2022-12-25T08:54:11.992Z,-2.14
2022-12-25T08:56:38.991Z,-2.05
2022-12-25T08:59:06.059Z,-2.05
2022-12-25T09:01:35.663Z,-2.14
2022-12-25T09:04:02.800Z,-2.16
2022-12-25T09:06:32.831Z,-2.18
2022-12-25T09:08:59.805Z,-2.14
2022-12-25T09:11:26.779Z,-2.16
2022-12-25T09:13:53.809Z,-2.16
2022-12-25T09:16:22.360Z,-2.22
2022-12-25T09:18:49.889Z,-2.12
2022-12-25T09:21:21.502Z,-2.14
2022-12-25T09:23:48.829Z,-2.13
2022-12-25T09:26:17.955Z,-2.14
2022-12-25T09:28:50.700Z,-2.25
2022-12-25T09:31:18.849Z,-2.17
2022-12-25T09:33:46.032Z,-2.35
2022-12-25T09:36:16.061Z,-2.35
2022-12-25T09:38:43.232Z,-2.24
2022-12-25T09:41:33.028Z,-2.29
2022-12-25T09:44:21.934Z,-2.38
2022-12-25T09:46:56.696Z,-2.42
2022-12-25T09:49:37.410Z,-2.43
2022-12-25T09:52:16.661Z,-2.42
2022-12-25T09:55:19.681Z,-2.48
2022-12-25T09:57:59.514Z,-2.52
2022-12-25T10:00:36.217Z,-2.51
2022-12-25T10:03:24.570Z,-2.43
2022-12-25T10:06:04.456Z,-2.37
2022-12-25T10:08:57.140Z,-2.40
2022-12-25T10:11:58.299Z,-2.43
2022-12-25T10:14:40.337Z,-2.43
2022-12-25T10:17:25.915Z,-2.51
2022-12-25T10:23:13.006Z,-2.60
2022-12-25T10:25:40.909Z,-2.61
2022-12-25T10:28:21.409Z,-2.57
2022-12-25T10:30:51.259Z,-2.53
2022-12-25T10:33:19.242Z,-2.52
2022-12-25T10:35:46.423Z,-2.57
2022-12-25T10:38:17.467Z,-2.62
2022-12-25T10:41:19.209Z,-2.46
2022-12-25T10:44:27.061Z,-2.45
2022-12-25T10:46:56.824Z,-2.46
2022-12-25T10:49:28.592Z,-2.43
2022-12-25T10:51:55.850Z,-2.40
2022-12-25T10:54:30.222Z,-2.35
2022-12-25T10:57:02.857Z,-2.31
2022-12-25T10:59:37.641Z,-2.32
2022-12-25T11:02:16.616Z,-2.38
2022-12-25T11:04:44.271Z,-2.51
2022-12-25T11:07:33.224Z,-2.52
2022-12-25T11:10:19.111Z,-2.46
2022-12-25T11:12:47.276Z,-2.50
2022-12-25T11:15:48.509Z,-2.35
2022-12-25T11:18:28.735Z,-2.32
2022-12-25T11:21:15.197Z,-2.35
2022-12-25T11:23:48.462Z,-2.31
2022-12-25T11:26:17.499Z,-2.24
2022-12-25T11:28:46.799Z,-2.19
2022-12-25T11:31:14.062Z,-2.19
2022-12-25T11:33:57.235Z,-2.25
2022-12-25T11:36:34.869Z,-2.16
2022-12-25T11:39:20.587Z,-2.14
2022-12-25T11:41:50.760Z,-2.09
2022-12-25T11:44:46.052Z,-2.04
2022-12-25T11:47:23.650Z,-2.10
2022-12-25T11:50:00.915Z,-2.08
2022-12-25T11:52:37.012Z,-2.15
2022-12-25T11:55:31.138Z,-2.11
2022-12-25T11:58:06.774Z,-1.99
2022-12-25T12:00:36.327Z,-2.06
2022-12-25T12:03:19.381Z,-2.15
2022-12-25T12:06:16.655Z,-1.99
2022-12-25T12:08:46.848Z,-1.96
2022-12-25T12:11:23.826Z,-1.92
2022-12-25T12:14:17.069Z,-1.91
2022-12-25T12:16:44.399Z,-1.97
2022-12-25T12:19:31.693Z,-1.96
2022-12-25T12:22:04.407Z,-1.99
2022-12-25T12:24:44.634Z,-2.00
2022-12-25T12:27:18.288Z,-2.05
2022-12-25T12:29:50.951Z,-2.03
2022-12-25T12:32:33.608Z,-2.07
2022-12-25T12:35:33.746Z,-2.25
2022-12-25T12:38:05.887Z,-2.18
2022-12-25T12:40:41.741Z,-2.08
2022-12-25T12:43:38.167Z,-2.12
2022-12-25T12:46:15.627Z,-2.15
2022-12-25T12:48:45.489Z,-2.29
2022-12-25T12:51:33.984Z,-2.23
2022-12-25T12:54:17.448Z,-2.12
2022-12-25T12:56:55.604Z,-2.03
2022-12-25T12:59:27.664Z,-2.15
2022-12-25T13:02:32.815Z,-1.91
2022-12-25T13:05:06.432Z,-1.90
2022-12-25T13:08:10.000Z,-1.86
2022-12-25T13:10:44.591Z,-2.02
2022-12-25T13:13:23.378Z,-1.87
2022-12-25T13:15:52.334Z,-1.85
2022-12-25T13:18:20.828Z,-1.81
2022-12-25T13:20:57.062Z,-1.83
2022-12-25T13:23:32.817Z,-1.89
2022-12-25T13:26:14.326Z,-1.88
2022-12-25T13:28:41.857Z,-1.83
2022-12-25T13:31:25.411Z,-1.82
2022-12-25T13:34:05.968Z,-1.77
2022-12-25T13:36:38.411Z,-1.84
2022-12-25T13:39:15.047Z,-1.87
2022-12-25T13:42:04.999Z,-1.85
2022-12-25T13:44:52.295Z,-1.96
2022-12-25T13:47:40.093Z,-1.99
2022-12-25T13:50:20.182Z,-2.07
2022-12-25T13:52:51.016Z,-2.21
2022-12-25T13:55:24.563Z,-2.27
2022-12-25T13:57:57.954Z,-2.28
2022-12-25T14:00:35.428Z,-2.35
2022-12-25T14:03:08.048Z,-2.42
2022-12-25T14:05:42.714Z,-2.47
2022-12-25T14:08:22.338Z,-2.50
2022-12-25T14:10:54.363Z,-2.59
2022-12-25T14:13:26.375Z,-2.60
2022-12-25T14:15:54.265Z,-2.58
2022-12-25T14:18:23.438Z,-2.68
2022-12-25T14:21:18.203Z,-2.70
2022-12-25T14:23:48.273Z,-2.67
2022-12-25T14:26:17.661Z,-2.66
2022-12-25T14:28:53.095Z,-2.69
2022-12-25T14:31:21.860Z,-2.80
2022-12-25T14:33:51.657Z,-2.73
2022-12-25T14:36:19.599Z,-2.74
2022-12-25T14:38:58.360Z,-2.74
2022-12-25T14:41:42.803Z,-2.78
2022-12-25T14:44:38.119Z,-2.79
2022-12-25T14:47:20.744Z,-2.80
2022-12-25T14:49:48.221Z,-2.81
2022-12-25T14:52:19.820Z,-2.84
2022-12-25T14:55:01.799Z,-2.85
2022-12-25T14:57:38.296Z,-2.84
2022-12-25T15:00:24.303Z,-2.84
2022-12-25T15:02:56.839Z,-2.88
2022-12-25T15:05:38.280Z,-2.90
2022-12-25T15:08:11.716Z,-2.87
2022-12-25T15:10:59.703Z,-2.89
2022-12-25T15:17:38.334Z,-2.95
2022-12-25T15:20:18.125Z,-2.89
2022-12-25T15:23:17.879Z,-2.92
2022-12-25T15:25:32.435Z,-2.84
2022-12-25T15:27:59.451Z,-2.85
2022-12-25T15:30:26.425Z,-2.84
2022-12-25T15:32:53.436Z,-2.77
2022-12-25T15:35:22.346Z,-2.74
2022-12-25T15:37:49.360Z,-2.71
2022-12-25T15:40:16.859Z,-2.66
2022-12-25T15:42:45.308Z,-2.62
2022-12-25T15:45:21.617Z,-2.72
2022-12-25T15:47:49.374Z,-2.60
2022-12-25T15:50:18.076Z,-2.55
2022-12-25T15:52:46.616Z,-2.51
2022-12-25T15:55:14.034Z,-2.50
2022-12-25T15:57:43.934Z,-2.47
2022-12-25T16:00:19.201Z,-2.57
2022-12-25T16:02:46.780Z,-2.42
2022-12-25T16:05:14.095Z,-2.39
2022-12-25T16:07:41.218Z,-2.36
2022-12-25T16:10:16.046Z,-2.34
2022-12-25T16:12:44.344Z,-2.34
2022-12-25T16:15:13.155Z,-2.34
2022-12-25T16:17:40.537Z,-2.32
2022-12-25T16:20:08.379Z,-2.34
2022-12-25T16:22:40.069Z,-2.38
2022-12-25T16:25:13.589Z,-2.39
2022-12-25T16:27:40.844Z,-2.39
2022-12-25T16:30:08.613Z,-2.45
2022-12-25T16:32:36.654Z,-2.47
2022-12-25T16:35:04.873Z,-2.46
2022-12-25T16:37:32.007Z,-2.49
2022-12-25T16:39:58.968Z,-2.45
2022-12-25T16:42:28.780Z,-2.45
2022-12-25T16:44:55.765Z,-2.42
2022-12-25T16:47:22.970Z,-2.45
2022-12-25T16:49:49.959Z,-2.42
2022-12-25T16:52:17.112Z,-2.40
2022-12-25T16:54:46.654Z,-2.39
2022-12-25T16:57:14.915Z,-2.38
2022-12-25T16:59:42.054Z,-2.37
2022-12-25T17:02:16.697Z,-2.43
2022-12-25T17:04:45.289Z,-2.37
2022-12-25T17:07:14.059Z,-2.32
2022-12-25T17:09:44.361Z,-2.38
2022-12-25T17:12:11.660Z,-2.38
2022-12-25T17:14:38.899Z,-2.45
2022-12-25T17:17:06.253Z,-2.42
2022-12-25T17:19:33.717Z,-2.47
2022-12-25T17:22:00.966Z,-2.44
2022-12-25T17:24:29.011Z,-2.48
2022-12-25T17:26:56.104Z,-2.61
2022-12-25T17:29:24.848Z,-2.43
2022-12-25T17:31:52.648Z,-2.35
2022-12-25T17:34:20.165Z,-2.39
2022-12-25T17:36:48.123Z,-2.36
2022-12-25T17:39:15.308Z,-2.26
2022-12-25T17:41:42.463Z,-2.23
2022-12-25T17:44:10.040Z,-2.25
2022-12-25T17:46:37.977Z,-2.18
2022-12-25T17:49:05.169Z,-2.23
2022-12-25T17:51:32.219Z,-2.22
2022-12-25T17:54:05.120Z,-2.31
2022-12-25T17:56:33.302Z,-2.47
2022-12-25T17:59:06.906Z,-2.33
2022-12-25T18:01:37.849Z,-2.33
2022-12-25T18:04:10.227Z,-2.34
2022-12-25T18:06:37.817Z,-2.35
2022-12-25T18:09:06.495Z,-2.24
2022-12-25T18:11:36.787Z,-2.18
2022-12-25T18:14:08.688Z,-2.20
2022-12-25T18:16:40.671Z,-2.22
2022-12-25T18:19:11.532Z,-2.19
2022-12-25T18:24:12.859Z,-2.22
2022-12-25T18:26:40.113Z,-2.28
2022-12-25T18:29:07.630Z,-2.29
2022-12-25T18:31:35.322Z,-2.27
2022-12-25T18:34:03.731Z,-2.25
2022-12-25T18:36:31.086Z,-2.22
2022-12-25T18:38:58.985Z,-2.25
2022-12-25T18:41:28.545Z,-2.24
2022-12-25T18:43:58.596Z,-2.32
2022-12-25T18:46:27.616Z,-2.39
2022-12-25T18:49:00.188Z,-2.34
2022-12-25T18:51:34.871Z,-2.54
2022-12-25T18:54:04.347Z,-2.48
2022-12-25T18:56:31.682Z,-2.46
2022-12-25T18:59:02.496Z,-2.37
2022-12-25T19:01:29.799Z,-2.30
2022-12-25T19:04:04.984Z,-2.31
2022-12-25T19:06:58.242Z,-2.23
2022-12-25T19:09:25.552Z,-2.34
2022-12-25T19:11:55.845Z,-2.21
2022-12-25T19:14:24.118Z,-2.08
2022-12-25T19:16:52.411Z,-2.21
2022-12-25T19:19:24.950Z,-2.05
2022-12-25T19:21:57.436Z,-2.20
2022-12-25T19:24:25.440Z,-2.17
2022-12-25T19:26:55.925Z,-2.26
2022-12-25T19:29:23.404Z,-2.29
2022-12-25T19:31:51.403Z,-2.27
2022-12-25T19:34:18.603Z,-2.33
2022-12-25T19:36:45.773Z,-2.32
2022-12-25T19:39:13.174Z,-2.39
2022-12-25T19:41:40.663Z,-2.39
2022-12-25T19:44:12.775Z,-2.48
2022-12-25T19:46:41.162Z,-2.45
2022-12-25T19:49:12.962Z,-2.46
2022-12-25T19:51:43.111Z,-2.52
2022-12-25T19:54:14.380Z,-2.51
2022-12-25T19:56:43.540Z,-2.52
2022-12-25T19:59:15.115Z,-2.56
2022-12-25T20:01:44.127Z,-2.62
2022-12-25T20:04:20.330Z,-2.58
2022-12-25T20:06:47.499Z,-2.59
2022-12-25T20:09:21.287Z,-2.61
2022-12-25T20:11:49.050Z,-2.55
2022-12-25T20:14:17.357Z,-2.59
2022-12-25T20:16:45.490Z,-2.58
2022-12-25T20:19:14.156Z,-2.62
2022-12-25T20:21:41.997Z,-2.62
2022-12-25T20:24:11.414Z,-2.59
2022-12-25T20:26:39.326Z,-2.53
2022-12-25T20:29:07.418Z,-2.48
2022-12-25T20:31:35.784Z,-2.47
2022-12-25T20:34:11.878Z,-2.53
2022-12-25T20:36:38.876Z,-2.46
2022-12-25T20:39:09.901Z,-2.50
2022-12-25T20:41:40.685Z,-2.41
2022-12-25T20:44:10.389Z,-2.37
2022-12-25T20:46:39.079Z,-2.32
2022-12-25T20:49:06.618Z,-2.26
2022-12-25T20:51:34.439Z,-2.18
2022-12-25T20:54:07.371Z,-2.16
2022-12-25T20:56:34.592Z,-2.17
2022-12-25T20:59:02.059Z,-2.21
2022-12-25T21:01:31.141Z,-2.30
2022-12-25T21:03:58.451Z,-2.35
2022-12-25T21:06:26.131Z,-2.36
2022-12-25T21:08:53.407Z,-2.36
2022-12-25T21:11:21.602Z,-2.34
2022-12-25T21:13:49.945Z,-2.35
2022-12-25T21:16:21.630Z,-2.31
2022-12-25T21:18:50.483Z,-2.25
2022-12-25T21:21:17.619Z,-2.20
2022-12-25T21:23:47.664Z,-2.16
2022-12-25T21:26:31.610Z,-2.13
2022-12-25T21:29:01.509Z,-2.09
2022-12-25T21:31:29.347Z,-2.10
2022-12-25T21:33:57.814Z,-2.04
2022-12-25T21:36:34.315Z,-2.05
2022-12-25T21:39:07.516Z,-2.02
2022-12-25T21:41:37.236Z,-1.98
2022-12-25T21:44:04.547Z,-1.92
2022-12-25T21:46:31.889Z,-1.87
2022-12-25T21:48:59.829Z,-1.88
2022-12-25T21:51:52.564Z,-1.82
2022-12-25T21:54:23.127Z,-1.83
2022-12-25T21:56:50.600Z,-1.90
2022-12-25T21:59:22.187Z,-1.91
2022-12-25T22:01:51.087Z,-1.99
2022-12-25T22:04:21.210Z,-2.01
2022-12-25T22:07:07.652Z,-2.03
2022-12-25T22:09:34.882Z,-2.02
2022-12-25T22:12:24.427Z,-1.94
2022-12-25T22:15:23.608Z,-1.86
2022-12-25T22:18:10.026Z,-1.84
2022-12-25T22:20:38.563Z,-1.88
2022-12-25T22:23:05.658Z,-1.90
2022-12-25T22:25:32.675Z,-1.94
2022-12-25T22:27:59.950Z,-2.00
2022-12-25T22:30:29.228Z,-1.98
2022-12-25T22:32:56.613Z,-2.05
2022-12-25T22:35:24.111Z,-2.10
2022-12-25T22:37:51.408Z,-2.15
2022-12-25T22:40:19.930Z,-2.17
2022-12-25T22:42:49.788Z,-2.14
2022-12-25T22:45:17.146Z,-2.11
2022-12-25T22:47:44.405Z,-2.10
2022-12-25T22:50:12.987Z,-2.13
2022-12-25T22:52:40.423Z,-2.09
2022-12-25T22:55:08.802Z,-2.02
2022-12-25T22:57:36.439Z,-2.00
2022-12-25T23:00:06.022Z,-2.00
2022-12-25T23:02:35.283Z,-2.01
2022-12-25T23:05:03.482Z,-2.00
2022-12-25T23:07:30.467Z,-2.04
2022-12-25T23:09:57.383Z,-1.98
2022-12-25T23:12:42.975Z,-2.00
2022-12-25T23:15:10.131Z,-2.03
2022-12-25T23:17:55.768Z,-2.00
2022-12-25T23:20:49.162Z,-1.99
2022-12-25T23:23:36.107Z,-2.04
2022-12-25T23:26:10.281Z,-2.11
2022-12-25T23:28:57.444Z,-2.21
2022-12-25T23:31:34.756Z,-2.23
2022-12-25T23:34:02.787Z,-2.34
2022-12-25T23:36:29.992Z,-2.40
2022-12-25T23:39:01.589Z,-2.41
2022-12-25T23:41:32.991Z,-2.50
2022-12-25T23:44:00.099Z,-2.52
2022-12-25T23:46:27.168Z,-2.54
2022-12-25T23:48:54.176Z,-2.57
2022-12-25T23:51:21.380Z,-2.57
2022-12-25T23:53:48.533Z,-2.52
2022-12-25T23:56:16.810Z,-2.54
2022-12-25T23:58:49.590Z,-2.54
